Terminal Aerodrome Forecast
Issued by NWS

Home | Current Version | Previous Version | Text Only | Print | Product List | Glossary On
Versions: 1 2 3 4 5 6 7 8 9 10 11 12
364
FTUS46 KPDT 291120
TAFALW
TAF
KALW 291120Z 2912/3012 12007KT P6SM SKC
     FM291600 24006KT P6SM SKC
     FM300300 17006KT P6SM SKC=

USA.gov is the U.S. government's official web portal to all federal, state and local government web resources and services.